Pacific Warden — 9VKQ5 — position and weather

sailwx.info

Track history (hours):
 
Tides and Currents Weather Stations Pressure Air Temp Water Temp Dewpoint Dewpoint Depression Visibility Wind Speed Wind Dir Waves Ship Positions

Pacific Warden

Last reported at 2017-Sep-19 17:40 UTC. Time now 2017-Sep-25 07:47 UTC.
Position N 04°54' W 001°43'.

Length 61 m; draft 6.6 m.

Type: Tug. MMSI: 563201000.

Date/timePositionNaut miles runAvg speedWind from/ knotsBaromVisibWave heightAir tempDewpointWater temp
2017-Sep-19 17:40N 04°54' W 001°43'0 0.0
2017-Sep-19 17:28N 04°54' W 001°43'0 0.0
2017-Sep-19 16:55N 04°54' W 001°43'0 0.0
2017-Sep-19 16:28N 04°54' W 001°43'0 0.0
2017-Sep-19 15:58N 04°54' W 001°43'0 0.0
2017-Sep-19 15:28N 04°54' W 001°43'0 0.0
2017-Sep-19 14:58N 04°54' W 001°43'0 0.0
2017-Sep-19 14:28N 04°54' W 001°43'0 0.0
2017-Sep-19 13:58N 04°54' W 001°43'0 0.0
2017-Sep-19 13:28N 04°54' W 001°43'0 0.0
2017-Sep-19 12:58N 04°54' W 001°43'0 0.0
2017-Sep-19 12:28N 04°54' W 001°43'0 0.0
2017-Sep-19 11:58N 04°54' W 001°43'0 0.0
2017-Sep-19 11:28N 04°54' W 001°43'0 0.0
2017-Sep-19 10:58N 04°54' W 001°43'0 0.0
2017-Sep-19 10:28N 04°54' W 001°43'0 0.0
2017-Sep-19 09:58N 04°54' W 001°43'0 0.0
2017-Sep-19 09:28N 04°54' W 001°43'0 0.0
2017-Sep-19 08:58N 04°54' W 001°43'0 0.0
2017-Sep-19 08:25N 04°54' W 001°43'0 0.0
2017-Sep-19 07:58N 04°54' W 001°43'0 0.0
2017-Sep-19 07:25N 04°54' W 001°43'0 0.0
2017-Sep-19 06:55N 04°54' W 001°43'  
2017-Sep-15 02:05N 04°34' W 002°04'1 7.2
2017-Sep-15 01:55N 04°34' W 002°06'3 6.9
2017-Sep-15 01:25N 04°34' W 002°09'3 6.8
2017-Sep-15 01:00N 04°33' W 002°12'3 6.9
2017-Sep-15 00:30N 04°33' W 002°15'3 6.4
2017-Sep-15 00:00N 04°32' W 002°18'3 5.5
2017-Sep-14 23:29N 04°32' W 002°21'3 5.5
2017-Sep-14 22:59N 04°32' W 002°24'3 5.7
2017-Sep-14 22:30N 04°32' W 002°27'2 3.5
2017-Sep-14 21:58N 04°32' W 002°29'1 2.9
2017-Sep-14 21:30N 04°31' W 002°30'1 1.5
2017-Sep-14 20:59N 04°30' W 002°30'1 1.6
2017-Sep-14 20:29N 04°30' W 002°30'1 1.5
2017-Sep-14 20:00N 04°29' W 002°30'1 1.6
2017-Sep-14 19:30N 04°28' W 002°30'1 1.7
2017-Sep-14 19:00N 04°27' W 002°30'1 1.8
2017-Sep-14 18:29N 04°26' W 002°30'0 0.7
2017-Sep-14 17:59N 04°26' W 002°30'0 1.0
2017-Sep-14 17:30N 04°26' W 002°30'1 1.2
2017-Sep-14 17:00N 04°27' W 002°30'1 1.0
2017-Sep-14 16:29N 04°27' W 002°29'1 1.1
2017-Sep-14 16:00N 04°27' W 002°29'0 0.9
2017-Sep-14 15:30N 04°26' W 002°29'1 1.1
2017-Sep-14 14:59N 04°26' W 002°29'0 0.8
2017-Sep-14 14:29N 04°26' W 002°29'0 1.0
2017-Sep-14 13:59N 04°26' W 002°29'0 0.9
2017-Sep-14 13:30N 04°27' W 002°30'0 0.9
2017-Sep-14 13:00N 04°27' W 002°30'0 0.8
2017-Sep-14 12:30N 04°28' W 002°30'1 1.2
2017-Sep-14 12:00N 04°28' W 002°30'1 1.2
2017-Sep-14 11:29N 04°29' W 002°30'1 1.0
2017-Sep-14 10:59N 04°29' W 002°30'1 1.2
2017-Sep-14 10:30N 04°29' W 002°31'1 1.7
2017-Sep-14 10:00N 04°29' W 002°32'1 1.6
2017-Sep-14 09:30N 04°29' W 002°33'1 1.2
2017-Sep-14 08:59N 04°30' W 002°33'1 1.2
2017-Sep-14 08:25N 04°31' W 002°33'0 1.1
2017-Sep-14 07:59N 04°31' W 002°33'1 1.1
2017-Sep-14 07:30N 04°32' W 002°33'0 0.6
2017-Sep-14 07:00N 04°32' W 002°33'0 0.7
2017-Sep-14 06:30N 04°32' W 002°33'0 0.3
2017-Sep-14 05:59N 04°32' W 002°33'0 0.4
2017-Sep-14 05:29N 04°32' W 002°33'1 1.4
2017-Sep-14 04:59N 04°32' W 002°33'1 1.6
2017-Sep-14 04:29N 04°31' W 002°33'1 1.3
2017-Sep-14 04:00N 04°30' W 002°33'1 1.1
2017-Sep-14 03:30N 04°30' W 002°34'0 0.7
2017-Sep-14 03:00N 04°30' W 002°34'0 0.4
2017-Sep-14 02:30N 04°30' W 002°34'0 0.4
2017-Sep-14 01:59N 04°30' W 002°34'0 0.5
2017-Sep-14 01:27N 04°30' W 002°34'0 0.6
2017-Sep-14 01:00N 04°30' W 002°34'0 0.4
2017-Sep-14 00:30N 04°30' W 002°35'0 0.3
2017-Sep-14 00:00N 04°31' W 002°35'0 0.9
2017-Sep-13 23:29N 04°31' W 002°35'0 0.2
2017-Sep-13 23:01N 04°31' W 002°35'0 0.4
2017-Sep-13 22:30N 04°31' W 002°35'1 1.7
2017-Sep-13 22:00N 04°30' W 002°35'1 1.9
2017-Sep-13 21:29N 04°29' W 002°35'0 0.1
2017-Sep-13 20:59N 04°29' W 002°35'0 0.6
2017-Sep-13 20:30N 04°30' W 002°35'0 0.6
2017-Sep-13 20:00N 04°30' W 002°35'0 0.3
2017-Sep-13 19:29N 04°30' W 002°35'0 0.5
2017-Sep-13 18:59N 04°30' W 002°35'0 0.5
2017-Sep-13 18:31N 04°31' W 002°36'0 0.4
2017-Sep-13 18:00N 04°31' W 002°35'0 0.3
2017-Sep-13 17:30N 04°31' W 002°35'0 0.2
2017-Sep-13 17:00N 04°31' W 002°35'0 0.2
2017-Sep-13 16:30N 04°31' W 002°35'0 0.1
2017-Sep-13 15:59N 04°31' W 002°35'0 0.3
2017-Sep-13 15:30N 04°31' W 002°35'0 0.3
2017-Sep-13 15:00N 04°31' W 002°35'0 0.4
2017-Sep-13 14:30N 04°31' W 002°35'0 0.6
2017-Sep-13 13:59N 04°31' W 002°35'0 0.6
2017-Sep-13 13:30N 04°31' W 002°34'0 0.8
2017-Sep-13 13:00N 04°31' W 002°34'0 1.0
2017-Sep-13 12:29N 04°31' W 002°33'0 0.8
2017-Sep-13 12:00N 04°31' W 002°33'1 1.2
2017-Sep-13 11:24N 04°31' W 002°34'0 1.0
2017-Sep-13 11:00N 04°31' W 002°34'1 1.2
2017-Sep-13 10:29N 04°31' W 002°35'0 0.8
2017-Sep-13 10:01N 04°30' W 002°34'0 0.4
2017-Sep-13 09:30N 04°30' W 002°34'0 0.8
2017-Sep-13 09:00N 04°30' W 002°35'1 1.1
2017-Sep-13 08:29N 04°30' W 002°35'1 1.3
2017-Sep-13 07:59N 04°30' W 002°36'0 0.8
2017-Sep-13 07:28N 04°30' W 002°36'0 0.8
2017-Sep-13 07:00N 04°30' W 002°36'0 0.8
2017-Sep-13 06:29N 04°31' W 002°36'0 0.7
2017-Sep-13 05:59N 04°31' W 002°36'1 1.2
2017-Sep-13 05:30N 04°32' W 002°37'1 1.1
2017-Sep-13 05:00N 04°31' W 002°37'2 3.1
2017-Sep-13 04:29N 04°29' W 002°37'2 3.2
2017-Sep-13 03:59N 04°28' W 002°36'1 2.8
2017-Sep-13 03:29N 04°27' W 002°36'1 0.7
2017-Sep-13 02:36N 04°26' W 002°36'0 0.5
2017-Sep-13 02:30N 04°26' W 002°36'0 0.4
2017-Sep-13 02:00N 04°26' W 002°36'0 0.4
2017-Sep-13 01:30N 04°26' W 002°36'0 0.5
2017-Sep-13 01:00N 04°27' W 002°36'0 0.6
2017-Sep-13 00:29N 04°27' W 002°36'0 0.7
2017-Sep-12 23:59N 04°27' W 002°36'0 0.9
2017-Sep-12 23:29N 04°28' W 002°36'0 0.9
2017-Sep-12 23:00N 04°28' W 002°36'0 0.7
2017-Sep-12 22:29N 04°29' W 002°36'0 0.8
2017-Sep-12 21:59N 04°29' W 002°35'0 0.9
2017-Sep-12 21:30N 04°29' W 002°35'0 0.8
2017-Sep-12 21:00N 04°30' W 002°35'1 1.2
2017-Sep-12 20:30N 04°30' W 002°35'1 1.2
2017-Sep-12 19:59N 04°31' W 002°35'1 1.0
2017-Sep-12 19:29N 04°31' W 002°35'0 0.9
2017-Sep-12 18:59N 04°32' W 002°35'0 0.8
2017-Sep-12 18:30N 04°32' W 002°35'1 2.1
2017-Sep-12 17:59N 04°31' W 002°35'1 2.1
2017-Sep-12 17:29N 04°30' W 002°34'0 0.3
2017-Sep-12 16:59N 04°30' W 002°34'0 0.6
2017-Sep-12 16:30N 04°30' W 002°34'0 0.7
2017-Sep-12 16:00N 04°31' W 002°34'0 0.8
2017-Sep-12 15:29N 04°31' W 002°34'0 0.8
2017-Sep-12 14:59N 04°31' W 002°34'0 0.6
2017-Sep-12 14:29N 04°32' W 002°34'0 0.5
2017-Sep-12 14:00N 04°32' W 002°34'0 0.5
2017-Sep-12 13:30N 04°32' W 002°34'1 2.0
2017-Sep-12 13:00N 04°31' W 002°34'1 2.2
2017-Sep-12 12:29N 04°30' W 002°34'0 0.6
2017-Sep-12 11:59N 04°30' W 002°33'1 1.5
2017-Sep-12 11:29N 04°31' W 002°33'0 0.5
2017-Sep-12 11:00N 04°31' W 002°33'1 1.1
2017-Sep-12 10:30N 04°30' W 002°34'0 0.9
2017-Sep-12 10:00N 04°30' W 002°34'0 0.9
2017-Sep-12 09:30N 04°30' W 002°35'0 0.8
2017-Sep-12 08:58N 04°30' W 002°35'0 0.7
2017-Sep-12 08:29N 04°30' W 002°35'0 0.7
2017-Sep-12 07:59N 04°30' W 002°35'1 2.0
2017-Sep-12 07:29N 04°29' W 002°36'1 1.9
2017-Sep-12 06:59N 04°28' W 002°36'1 1.9
2017-Sep-12 06:30N 04°27' W 002°36'1 1.9
2017-Sep-12 06:00N 04°26' W 002°35'1 1.7
2017-Sep-12 05:30N 04°26' W 002°35'0 1.0
2017-Sep-12 04:59N 04°26' W 002°35'1 1.5
2017-Sep-12 04:30N 04°27' W 002°35'1 1.4
2017-Sep-12 04:00N 04°27' W 002°35'1 1.0
2017-Sep-12 03:30N 04°27' W 002°35'1 1.3
2017-Sep-12 02:59N 04°26' W 002°35'1 2.0
2017-Sep-12 02:29N 04°25' W 002°35'0 0.9
2017-Sep-12 01:59N 04°25' W 002°35'1 1.2
2017-Sep-12 01:29N 04°25' W 002°35'1 1.1
2017-Sep-12 01:00N 04°26' W 002°35'1 1.2
2017-Sep-12 00:30N 04°26' W 002°35'1 1.3
2017-Sep-11 23:59N 04°27' W 002°35'1 1.4
2017-Sep-11 23:29N 04°28' W 002°35'0 0.1
2017-Sep-11 23:00N 04°28' W 002°35'1 1.5
2017-Sep-11 22:30N 04°27' W 002°35'1 1.3
2017-Sep-11 21:59N 04°26' W 002°36'0 0.7
2017-Sep-11 21:29N 04°26' W 002°36'1 1.6
2017-Sep-11 20:59N 04°27' W 002°36'1 1.6
2017-Sep-11 20:30N 04°28' W 002°36'1 1.6
2017-Sep-11 19:59N 04°28' W 002°36'1 1.6
2017-Sep-11 19:31N 04°29' W 002°35'1 1.5
2017-Sep-11 19:00N 04°30' W 002°35'1 1.8
2017-Sep-11 18:30N 04°31' W 002°35'1 1.8
2017-Sep-11 17:59N 04°31' W 002°34'1 1.6
2017-Sep-11 17:29N 04°32' W 002°34'1 1.3
2017-Sep-11 17:00N 04°32' W 002°34'1 1.3
2017-Sep-11 16:30N 04°31' W 002°33'0 0.4
2017-Sep-11 16:00N 04°31' W 002°33'1 1.5
2017-Sep-11 15:30N 04°32' W 002°33'1 1.0
2017-Sep-11 14:59N 04°32' W 002°33'1 1.6
2017-Sep-11 14:29N 04°31' W 002°33'1 2.0
2017-Sep-11 13:59N 04°30' W 002°34'0 0.2
2017-Sep-11 13:30N 04°30' W 002°34'1 1.3
2017-Sep-11 13:00N 04°31' W 002°33'0 0.4
2017-Sep-11 12:29N 04°31' W 002°33'1 1.3
2017-Sep-11 11:59N 04°30' W 002°33'1 1.3
2017-Sep-11 11:29N 04°30' W 002°34'1 1.3
2017-Sep-11 11:00N 04°29' W 002°34'1 1.5
2017-Sep-11 10:29N 04°28' W 002°34'1 1.7
2017-Sep-11 09:59N 04°28' W 002°34'1 1.8
2017-Sep-11 09:29N 04°27' W 002°34'1 1.6
2017-Sep-11 09:01N 04°26' W 002°34'1 1.6
2017-Sep-11 08:29N 04°25' W 002°33'1 1.4
2017-Sep-11 07:59N 04°24' W 002°33'1 1.3
2017-Sep-11 07:29N 04°24' W 002°33'1 1.3
2017-Sep-11 06:59N 04°23' W 002°34'0 1.0
2017-Sep-11 06:30N 04°24' W 002°34'1 1.8
2017-Sep-11 06:00N 04°24' W 002°33'1 1.7
2017-Sep-11 05:30N 04°25' W 002°33'1 1.7
2017-Sep-11 05:00N 04°26' W 002°34'1 1.6
2017-Sep-11 04:29N 04°27' W 002°34'1 1.4
2017-Sep-11 04:00N 04°27' W 002°35'1 1.3
2017-Sep-11 03:30N 04°27' W 002°35'1 1.6
2017-Sep-11 03:00N 04°26' W 002°35'1 1.7
2017-Sep-11 02:29N 04°25' W 002°35'1 1.4
2017-Sep-11 01:59N 04°26' W 002°35'1 1.9
2017-Sep-11 01:30N 04°27' W 002°35'1 1.9
2017-Sep-11 01:00N 04°27' W 002°35'0 0.4
2017-Sep-11 00:30N 04°28' W 002°34'1 1.5
2017-Sep-11 00:00N 04°27' W 002°35'1 1.6
2017-Sep-10 23:29N 04°26' W 002°35'1 1.5
2017-Sep-10 23:00N 04°25' W 002°35'1 1.4
2017-Sep-10 22:30N 04°26' W 002°35'1 1.9
2017-Sep-10 21:59N 04°27' W 002°35'1 1.2
2017-Sep-10 21:29N 04°26' W 002°35'1 1.3
2017-Sep-10 20:59N 04°26' W 002°36'0 0.4
2017-Sep-10 20:29N 04°26' W 002°36'1 1.7
2017-Sep-10 20:00N 04°27' W 002°36'1 1.9
2017-Sep-10 19:30N 04°27' W 002°36'1 1.8
2017-Sep-10 19:00N 04°28' W 002°35'1 1.8
2017-Sep-10 18:29N 04°29' W 002°35'1 2.0
2017-Sep-10 17:59N 04°30' W 002°35'1 1.9
2017-Sep-10 17:30N 04°31' W 002°35'1 1.9
2017-Sep-10 17:00N 04°32' W 002°35'1 1.9
2017-Sep-10 16:30N 04°33' W 002°34'0 0.5
2017-Sep-10 15:59N 04°33' W 002°34'1 1.6
2017-Sep-10 15:30N 04°32' W 002°34'1 1.5
2017-Sep-10 14:59N 04°31' W 002°34'2 1.5
2017-Sep-10 13:59N 04°30' W 002°34'1 1.5
2017-Sep-10 13:30N 04°29' W 002°34'1 1.6
2017-Sep-10 13:00N 04°28' W 002°34'1 1.6
2017-Sep-10 12:30N 04°27' W 002°34'1 1.6
2017-Sep-10 11:59N 04°27' W 002°34'1 1.8
2017-Sep-10 11:29N 04°26' W 002°34'1 1.8
2017-Sep-10 11:00N 04°25' W 002°34'1 1.8
2017-Sep-10 10:30N 04°26' W 002°34'1 1.9
2017-Sep-10 09:59N 04°27' W 002°34'0 0.4
2017-Sep-10 09:29N 04°27' W 002°34'1 1.2
2017-Sep-10 08:59N 04°26' W 002°34'0 0.5
2017-Sep-10 08:28N 04°26' W 002°34'1 1.5
2017-Sep-10 08:00N 04°27' W 002°35'1 1.6
2017-Sep-10 07:30N 04°27' W 002°35'1 2.0
2017-Sep-10 07:00N 04°28' W 002°36'1 2.0
2017-Sep-10 06:29N 04°29' W 002°36'1 2.0
2017-Sep-10 06:01N 04°30' W 002°36'0 0.4
2017-Sep-10 05:30N 04°30' W 002°36'1 1.1
2017-Sep-10 04:59N 04°30' W 002°36'1 1.1
2017-Sep-10 04:30N 04°29' W 002°36'1 1.2
2017-Sep-10 04:00N 04°28' W 002°36'1 1.3
2017-Sep-10 03:29N 04°28' W 002°36'1 1.4
2017-Sep-10 02:59N 04°27' W 002°36'1 1.5
2017-Sep-10 02:30N 04°26' W 002°36'1 1.7
2017-Sep-10 02:00N 04°25' W 002°36'1 1.6
2017-Sep-10 01:30N 04°25' W 002°36'0 0.6
2017-Sep-10 00:59N 04°25' W 002°36'1 1.6
2017-Sep-10 00:29N 04°26' W 002°36'1 1.7
2017-Sep-09 23:59N 04°27' W 002°35'1 2.1
2017-Sep-09 23:29N 04°28' W 002°35'1 2.2
2017-Sep-09 23:00N 04°29' W 002°35'1 2.3
2017-Sep-09 22:30N 04°30' W 002°35'1 2.3
2017-Sep-09 22:00N 04°31' W 002°34'0 0.3
2017-Sep-09 21:29N 04°31' W 002°34'1 2.2
2017-Sep-09 20:59N 04°30' W 002°34'1 2.1
2017-Sep-09 20:30N 04°29' W 002°35'1 1.9
2017-Sep-09 19:59N 04°28' W 002°35'1 1.9
2017-Sep-09 19:29N 04°27' W 002°34'1 2.1
2017-Sep-09 19:00N 04°26' W 002°34'  
Track history (hours):
 
Tides and Currents Weather Stations Pressure Air Temp Water Temp Dewpoint Dewpoint Depression Visibility Wind Speed Wind Dir Waves Ship Positions

Pacific Warden

Last reported at 2017-Sep-19 17:40 UTC. Time now 2017-Sep-25 07:47 UTC.
Position N 04°54' W 001°43'.

Length 61 m; draft 6.6 m.

Type: Tug. MMSI: 563201000.

Date/timePositionNaut miles runAvg speedWind from/ knotsBaromVisibWave heightAir tempDewpointWater temp
2017-Sep-19 17:40N 04°54' W 001°43'0 0.0
2017-Sep-19 17:28N 04°54' W 001°43'0 0.0
2017-Sep-19 16:55N 04°54' W 001°43'0 0.0
2017-Sep-19 16:28N 04°54' W 001°43'0 0.0
2017-Sep-19 15:58N 04°54' W 001°43'0 0.0
2017-Sep-19 15:28N 04°54' W 001°43'0 0.0
2017-Sep-19 14:58N 04°54' W 001°43'0 0.0
2017-Sep-19 14:28N 04°54' W 001°43'0 0.0
2017-Sep-19 13:58N 04°54' W 001°43'0 0.0
2017-Sep-19 13:28N 04°54' W 001°43'0 0.0
2017-Sep-19 12:58N 04°54' W 001°43'0 0.0
2017-Sep-19 12:28N 04°54' W 001°43'0 0.0
2017-Sep-19 11:58N 04°54' W 001°43'0 0.0
2017-Sep-19 11:28N 04°54' W 001°43'0 0.0
2017-Sep-19 10:58N 04°54' W 001°43'0 0.0
2017-Sep-19 10:28N 04°54' W 001°43'0 0.0
2017-Sep-19 09:58N 04°54' W 001°43'0 0.0
2017-Sep-19 09:28N 04°54' W 001°43'0 0.0
2017-Sep-19 08:58N 04°54' W 001°43'0 0.0
2017-Sep-19 08:25N 04°54' W 001°43'0 0.0
2017-Sep-19 07:58N 04°54' W 001°43'0 0.0
2017-Sep-19 07:25N 04°54' W 001°43'0 0.0
2017-Sep-19 06:55N 04°54' W 001°43'  
2017-Sep-15 02:05N 04°34' W 002°04'1 7.2
2017-Sep-15 01:55N 04°34' W 002°06'3 6.9
2017-Sep-15 01:25N 04°34' W 002°09'3 6.8
2017-Sep-15 01:00N 04°33' W 002°12'3 6.9
2017-Sep-15 00:30N 04°33' W 002°15'3 6.4
2017-Sep-15 00:00N 04°32' W 002°18'3 5.5
2017-Sep-14 23:29N 04°32' W 002°21'3 5.5
2017-Sep-14 22:59N 04°32' W 002°24'3 5.7
2017-Sep-14 22:30N 04°32' W 002°27'2 3.5
2017-Sep-14 21:58N 04°32' W 002°29'1 2.9
2017-Sep-14 21:30N 04°31' W 002°30'1 1.5
2017-Sep-14 20:59N 04°30' W 002°30'1 1.6
2017-Sep-14 20:29N 04°30' W 002°30'1 1.5
2017-Sep-14 20:00N 04°29' W 002°30'1 1.6
2017-Sep-14 19:30N 04°28' W 002°30'1 1.7
2017-Sep-14 19:00N 04°27' W 002°30'1 1.8
2017-Sep-14 18:29N 04°26' W 002°30'0 0.7
2017-Sep-14 17:59N 04°26' W 002°30'0 1.0
2017-Sep-14 17:30N 04°26' W 002°30'1 1.2
2017-Sep-14 17:00N 04°27' W 002°30'1 1.0
2017-Sep-14 16:29N 04°27' W 002°29'1 1.1
2017-Sep-14 16:00N 04°27' W 002°29'0 0.9
2017-Sep-14 15:30N 04°26' W 002°29'1 1.1
2017-Sep-14 14:59N 04°26' W 002°29'0 0.8
2017-Sep-14 14:29N 04°26' W 002°29'0 1.0
2017-Sep-14 13:59N 04°26' W 002°29'0 0.9
2017-Sep-14 13:30N 04°27' W 002°30'0 0.9
2017-Sep-14 13:00N 04°27' W 002°30'0 0.8
2017-Sep-14 12:30N 04°28' W 002°30'1 1.2
2017-Sep-14 12:00N 04°28' W 002°30'1 1.2
2017-Sep-14 11:29N 04°29' W 002°30'1 1.0
2017-Sep-14 10:59N 04°29' W 002°30'1 1.2
2017-Sep-14 10:30N 04°29' W 002°31'1 1.7
2017-Sep-14 10:00N 04°29' W 002°32'1 1.6
2017-Sep-14 09:30N 04°29' W 002°33'1 1.2
2017-Sep-14 08:59N 04°30' W 002°33'1 1.2
2017-Sep-14 08:25N 04°31' W 002°33'0 1.1
2017-Sep-14 07:59N 04°31' W 002°33'1 1.1
2017-Sep-14 07:30N 04°32' W 002°33'0 0.6
2017-Sep-14 07:00N 04°32' W 002°33'0 0.7
2017-Sep-14 06:30N 04°32' W 002°33'0 0.3
2017-Sep-14 05:59N 04°32' W 002°33'0 0.4
2017-Sep-14 05:29N 04°32' W 002°33'1 1.4
2017-Sep-14 04:59N 04°32' W 002°33'1 1.6
2017-Sep-14 04:29N 04°31' W 002°33'1 1.3
2017-Sep-14 04:00N 04°30' W 002°33'1 1.1
2017-Sep-14 03:30N 04°30' W 002°34'0 0.7
2017-Sep-14 03:00N 04°30' W 002°34'0 0.4
2017-Sep-14 02:30N 04°30' W 002°34'0 0.4
2017-Sep-14 01:59N 04°30' W 002°34'0 0.5
2017-Sep-14 01:27N 04°30' W 002°34'0 0.6
2017-Sep-14 01:00N 04°30' W 002°34'0 0.4
2017-Sep-14 00:30N 04°30' W 002°35'0 0.3
2017-Sep-14 00:00N 04°31' W 002°35'0 0.9
2017-Sep-13 23:29N 04°31' W 002°35'0 0.2
2017-Sep-13 23:01N 04°31' W 002°35'0 0.4
2017-Sep-13 22:30N 04°31' W 002°35'1 1.7
2017-Sep-13 22:00N 04°30' W 002°35'1 1.9
2017-Sep-13 21:29N 04°29' W 002°35'0 0.1
2017-Sep-13 20:59N 04°29' W 002°35'0 0.6
2017-Sep-13 20:30N 04°30' W 002°35'0 0.6
2017-Sep-13 20:00N 04°30' W 002°35'0 0.3
2017-Sep-13 19:29N 04°30' W 002°35'0 0.5
2017-Sep-13 18:59N 04°30' W 002°35'0 0.5
2017-Sep-13 18:31N 04°31' W 002°36'0 0.4
2017-Sep-13 18:00N 04°31' W 002°35'0 0.3
2017-Sep-13 17:30N 04°31' W 002°35'0 0.2
2017-Sep-13 17:00N 04°31' W 002°35'0 0.2
2017-Sep-13 16:30N 04°31' W 002°35'0 0.1
2017-Sep-13 15:59N 04°31' W 002°35'0 0.3
2017-Sep-13 15:30N 04°31' W 002°35'0 0.3
2017-Sep-13 15:00N 04°31' W 002°35'0 0.4
2017-Sep-13 14:30N 04°31' W 002°35'0 0.6
2017-Sep-13 13:59N 04°31' W 002°35'0 0.6
2017-Sep-13 13:30N 04°31' W 002°34'0 0.8
2017-Sep-13 13:00N 04°31' W 002°34'0 1.0
2017-Sep-13 12:29N 04°31' W 002°33'0 0.8
2017-Sep-13 12:00N 04°31' W 002°33'1 1.2
2017-Sep-13 11:24N 04°31' W 002°34'0 1.0
2017-Sep-13 11:00N 04°31' W 002°34'1 1.2
2017-Sep-13 10:29N 04°31' W 002°35'0 0.8
2017-Sep-13 10:01N 04°30' W 002°34'0 0.4
2017-Sep-13 09:30N 04°30' W 002°34'0 0.8
2017-Sep-13 09:00N 04°30' W 002°35'1 1.1
2017-Sep-13 08:29N 04°30' W 002°35'1 1.3
2017-Sep-13 07:59N 04°30' W 002°36'0 0.8
2017-Sep-13 07:28N 04°30' W 002°36'0 0.8
2017-Sep-13 07:00N 04°30' W 002°36'0 0.8
2017-Sep-13 06:29N 04°31' W 002°36'0 0.7
2017-Sep-13 05:59N 04°31' W 002°36'1 1.2
2017-Sep-13 05:30N 04°32' W 002°37'1 1.1
2017-Sep-13 05:00N 04°31' W 002°37'2 3.1
2017-Sep-13 04:29N 04°29' W 002°37'2 3.2
2017-Sep-13 03:59N 04°28' W 002°36'1 2.8
2017-Sep-13 03:29N 04°27' W 002°36'1 0.7
2017-Sep-13 02:36N 04°26' W 002°36'0 0.5
2017-Sep-13 02:30N 04°26' W 002°36'0 0.4
2017-Sep-13 02:00N 04°26' W 002°36'0 0.4
2017-Sep-13 01:30N 04°26' W 002°36'0 0.5
2017-Sep-13 01:00N 04°27' W 002°36'0 0.6
2017-Sep-13 00:29N 04°27' W 002°36'0 0.7
2017-Sep-12 23:59N 04°27' W 002°36'0 0.9
2017-Sep-12 23:29N 04°28' W 002°36'0 0.9
2017-Sep-12 23:00N 04°28' W 002°36'0 0.7
2017-Sep-12 22:29N 04°29' W 002°36'0 0.8
2017-Sep-12 21:59N 04°29' W 002°35'0 0.9
2017-Sep-12 21:30N 04°29' W 002°35'0 0.8
2017-Sep-12 21:00N 04°30' W 002°35'1 1.2
2017-Sep-12 20:30N 04°30' W 002°35'1 1.2
2017-Sep-12 19:59N 04°31' W 002°35'1 1.0
2017-Sep-12 19:29N 04°31' W 002°35'0 0.9
2017-Sep-12 18:59N 04°32' W 002°35'0 0.8
2017-Sep-12 18:30N 04°32' W 002°35'1 2.1
2017-Sep-12 17:59N 04°31' W 002°35'1 2.1
2017-Sep-12 17:29N 04°30' W 002°34'0 0.3
2017-Sep-12 16:59N 04°30' W 002°34'0 0.6
2017-Sep-12 16:30N 04°30' W 002°34'0 0.7
2017-Sep-12 16:00N 04°31' W 002°34'0 0.8
2017-Sep-12 15:29N 04°31' W 002°34'0 0.8
2017-Sep-12 14:59N 04°31' W 002°34'0 0.6
2017-Sep-12 14:29N 04°32' W 002°34'0 0.5
2017-Sep-12 14:00N 04°32' W 002°34'0 0.5
2017-Sep-12 13:30N 04°32' W 002°34'1 2.0
2017-Sep-12 13:00N 04°31' W 002°34'1 2.2
2017-Sep-12 12:29N 04°30' W 002°34'0 0.6
2017-Sep-12 11:59N 04°30' W 002°33'1 1.5
2017-Sep-12 11:29N 04°31' W 002°33'0 0.5
2017-Sep-12 11:00N 04°31' W 002°33'1 1.1
2017-Sep-12 10:30N 04°30' W 002°34'0 0.9
2017-Sep-12 10:00N 04°30' W 002°34'0 0.9
2017-Sep-12 09:30N 04°30' W 002°35'0 0.8
2017-Sep-12 08:58N 04°30' W 002°35'0 0.7
2017-Sep-12 08:29N 04°30' W 002°35'0 0.7
2017-Sep-12 07:59N 04°30' W 002°35'1 2.0
2017-Sep-12 07:29N 04°29' W 002°36'1 1.9
2017-Sep-12 06:59N 04°28' W 002°36'1 1.9
2017-Sep-12 06:30N 04°27' W 002°36'1 1.9
2017-Sep-12 06:00N 04°26' W 002°35'1 1.7
2017-Sep-12 05:30N 04°26' W 002°35'0 1.0
2017-Sep-12 04:59N 04°26' W 002°35'1 1.5
2017-Sep-12 04:30N 04°27' W 002°35'1 1.4
2017-Sep-12 04:00N 04°27' W 002°35'1 1.0
2017-Sep-12 03:30N 04°27' W 002°35'1 1.3
2017-Sep-12 02:59N 04°26' W 002°35'1 2.0
2017-Sep-12 02:29N 04°25' W 002°35'0 0.9
2017-Sep-12 01:59N 04°25' W 002°35'1 1.2
2017-Sep-12 01:29N 04°25' W 002°35'1 1.1
2017-Sep-12 01:00N 04°26' W 002°35'1 1.2
2017-Sep-12 00:30N 04°26' W 002°35'1 1.3
2017-Sep-11 23:59N 04°27' W 002°35'1 1.4
2017-Sep-11 23:29N 04°28' W 002°35'0 0.1
2017-Sep-11 23:00N 04°28' W 002°35'1 1.5
2017-Sep-11 22:30N 04°27' W 002°35'1 1.3
2017-Sep-11 21:59N 04°26' W 002°36'0 0.7
2017-Sep-11 21:29N 04°26' W 002°36'1 1.6
2017-Sep-11 20:59N 04°27' W 002°36'1 1.6
2017-Sep-11 20:30N 04°28' W 002°36'1 1.6
2017-Sep-11 19:59N 04°28' W 002°36'1 1.6
2017-Sep-11 19:31N 04°29' W 002°35'1 1.5
2017-Sep-11 19:00N 04°30' W 002°35'1 1.8
2017-Sep-11 18:30N 04°31' W 002°35'1 1.8
2017-Sep-11 17:59N 04°31' W 002°34'1 1.6
2017-Sep-11 17:29N 04°32' W 002°34'1 1.3
2017-Sep-11 17:00N 04°32' W 002°34'1 1.3
2017-Sep-11 16:30N 04°31' W 002°33'0 0.4
2017-Sep-11 16:00N 04°31' W 002°33'1 1.5
2017-Sep-11 15:30N 04°32' W 002°33'1 1.0
2017-Sep-11 14:59N 04°32' W 002°33'1 1.6
2017-Sep-11 14:29N 04°31' W 002°33'1 2.0
2017-Sep-11 13:59N 04°30' W 002°34'0 0.2
2017-Sep-11 13:30N 04°30' W 002°34'1 1.3
2017-Sep-11 13:00N 04°31' W 002°33'0 0.4
2017-Sep-11 12:29N 04°31' W 002°33'1 1.3
2017-Sep-11 11:59N 04°30' W 002°33'1 1.3
2017-Sep-11 11:29N 04°30' W 002°34'1 1.3
2017-Sep-11 11:00N 04°29' W 002°34'1 1.5
2017-Sep-11 10:29N 04°28' W 002°34'1 1.7
2017-Sep-11 09:59N 04°28' W 002°34'1 1.8
2017-Sep-11 09:29N 04°27' W 002°34'1 1.6
2017-Sep-11 09:01N 04°26' W 002°34'1 1.6
2017-Sep-11 08:29N 04°25' W 002°33'1 1.4
2017-Sep-11 07:59N 04°24' W 002°33'1 1.3
2017-Sep-11 07:29N 04°24' W 002°33'1 1.3
2017-Sep-11 06:59N 04°23' W 002°34'0 1.0
2017-Sep-11 06:30N 04°24' W 002°34'1 1.8
2017-Sep-11 06:00N 04°24' W 002°33'1 1.7
2017-Sep-11 05:30N 04°25' W 002°33'1 1.7
2017-Sep-11 05:00N 04°26' W 002°34'1 1.6
2017-Sep-11 04:29N 04°27' W 002°34'1 1.4
2017-Sep-11 04:00N 04°27' W 002°35'1 1.3
2017-Sep-11 03:30N 04°27' W 002°35'1 1.6
2017-Sep-11 03:00N 04°26' W 002°35'1 1.7
2017-Sep-11 02:29N 04°25' W 002°35'1 1.4
2017-Sep-11 01:59N 04°26' W 002°35'1 1.9
2017-Sep-11 01:30N 04°27' W 002°35'1 1.9
2017-Sep-11 01:00N 04°27' W 002°35'0 0.4
2017-Sep-11 00:30N 04°28' W 002°34'1 1.5
2017-Sep-11 00:00N 04°27' W 002°35'1 1.6
2017-Sep-10 23:29N 04°26' W 002°35'1 1.5
2017-Sep-10 23:00N 04°25' W 002°35'1 1.4
2017-Sep-10 22:30N 04°26' W 002°35'1 1.9
2017-Sep-10 21:59N 04°27' W 002°35'1 1.2
2017-Sep-10 21:29N 04°26' W 002°35'1 1.3
2017-Sep-10 20:59N 04°26' W 002°36'0 0.4
2017-Sep-10 20:29N 04°26' W 002°36'1 1.7
2017-Sep-10 20:00N 04°27' W 002°36'1 1.9
2017-Sep-10 19:30N 04°27' W 002°36'1 1.8
2017-Sep-10 19:00N 04°28' W 002°35'1 1.8
2017-Sep-10 18:29N 04°29' W 002°35'1 2.0
2017-Sep-10 17:59N 04°30' W 002°35'1 1.9
2017-Sep-10 17:30N 04°31' W 002°35'1 1.9
2017-Sep-10 17:00N 04°32' W 002°35'1 1.9
2017-Sep-10 16:30N 04°33' W 002°34'0 0.5
2017-Sep-10 15:59N 04°33' W 002°34'1 1.6
2017-Sep-10 15:30N 04°32' W 002°34'1 1.5
2017-Sep-10 14:59N 04°31' W 002°34'2 1.5
2017-Sep-10 13:59N 04°30' W 002°34'1 1.5
2017-Sep-10 13:30N 04°29' W 002°34'1 1.6
2017-Sep-10 13:00N 04°28' W 002°34'1 1.6
2017-Sep-10 12:30N 04°27' W 002°34'1 1.6
2017-Sep-10 11:59N 04°27' W 002°34'1 1.8
2017-Sep-10 11:29N 04°26' W 002°34'1 1.8
2017-Sep-10 11:00N 04°25' W 002°34'1 1.8
2017-Sep-10 10:30N 04°26' W 002°34'1 1.9
2017-Sep-10 09:59N 04°27' W 002°34'0 0.4
2017-Sep-10 09:29N 04°27' W 002°34'1 1.2
2017-Sep-10 08:59N 04°26' W 002°34'0 0.5
2017-Sep-10 08:28N 04°26' W 002°34'1 1.5
2017-Sep-10 08:00N 04°27' W 002°35'1 1.6
2017-Sep-10 07:30N 04°27' W 002°35'1 2.0
2017-Sep-10 07:00N 04°28' W 002°36'1 2.0
2017-Sep-10 06:29N 04°29' W 002°36'1 2.0
2017-Sep-10 06:01N 04°30' W 002°36'0 0.4
2017-Sep-10 05:30N 04°30' W 002°36'1 1.1
2017-Sep-10 04:59N 04°30' W 002°36'1 1.1
2017-Sep-10 04:30N 04°29' W 002°36'1 1.2
2017-Sep-10 04:00N 04°28' W 002°36'1 1.3
2017-Sep-10 03:29N 04°28' W 002°36'1 1.4
2017-Sep-10 02:59N 04°27' W 002°36'1 1.5
2017-Sep-10 02:30N 04°26' W 002°36'1 1.7
2017-Sep-10 02:00N 04°25' W 002°36'1 1.6
2017-Sep-10 01:30N 04°25' W 002°36'0 0.6
2017-Sep-10 00:59N 04°25' W 002°36'1 1.6
2017-Sep-10 00:29N 04°26' W 002°36'1 1.7
2017-Sep-09 23:59N 04°27' W 002°35'1 2.1
2017-Sep-09 23:29N 04°28' W 002°35'1 2.2
2017-Sep-09 23:00N 04°29' W 002°35'1 2.3
2017-Sep-09 22:30N 04°30' W 002°35'1 2.3
2017-Sep-09 22:00N 04°31' W 002°34'0 0.3
2017-Sep-09 21:29N 04°31' W 002°34'1 2.2
2017-Sep-09 20:59N 04°30' W 002°34'1 2.1
2017-Sep-09 20:30N 04°29' W 002°35'1 1.9
2017-Sep-09 19:59N 04°28' W 002°35'1 1.9
2017-Sep-09 19:29N 04°27' W 002°34'1 2.1
2017-Sep-09 19:00N 04°26' W 002°34'  

Dump ship's entire track history